Airfield :
LOGIN :

Register | Disclaimer

   EN    FR    IT 

 










Legend :    VFR   Marginal VFR   IFR   Intensive IFR   Very Intensive IFR
Visi :
Ceiling :
>= 8 km
>= 3000ft
5 to 8 km
1000 to 3000 ft
1500m to 5 km
500 to 1000 ft
800 to 1500m
200 to 500 ft
< 800m
< 200 ft
Symbols :   Thunderstorms  Fog  Heavy snow  Heavy precipitations  Wind > 20 kt
SIGMETs :     Misc.  Thunderstorms  Icing  Turbulence  Mountain Waves  Volcanic Ashes







- Airport Elevation : 364 ft
- Download approach charts


LFAQ - Albert Bray

CURRENT METAR :
  • 211130Z AUTO VRB03KT 9999 FEW038 OVC052 22/14 Q1014 TEMPO 4000 SHRA BKN040TCU

EXPIRED METARs :
  • 211100Z AUTO VRB02KT CAVOK 22/14 Q1013 TEMPO 4000 SHRA BKN050TCU
  • 211030Z AUTO VRB02KT 7000 BKN047 BKN054 OVC066 21/13 Q1013 TEMPO 4000 SHRA BKN050TCU
  • 211000Z AUTO 36005KT 320V070 9999 BKN049 21/13 Q1013 TEMPO 4000 SHRA BKN050TCU
  • 210930Z AUTO 01004KT 300V080 CAVOK 20/13 Q1013 TEMPO 4000 SHRA BKN050TCU
  • 210900Z AUTO 32003KT 270V350 9999 FEW013 OVC049 20/14 Q1013 NOSIG

TAF TAF LFAQ
Valid from the 21 at 12:00 until the 21 at 21:00 UTC


211100Z 2112/2121 VRB03KT CAVOK
PROB30
TEMPO 2112/2117 4000 SHRA BKN040TCU
No reported NOTAMs for that airfield.



MET'MAP, your aeronautical weather chart ! - Copyright ORBIFLY December 2007 - Disclaimer

ORBIFLY MET'MAP TEAM :

Programming & Development : Alexandra Zaïnal
Concept & Development : Baudouin d'Aumeries
Co-Development & Prog : Marc-Olivier Méhu
Technical & hardware support : Manuel Goepfert

Contact : metmap@orbifly.com




SOURCES & CREDITS :

   NOAA